Time;durP1;ratioP1;P1;durP2;ratioP2;P2;SDS_P1;SDS_P2;PMS_P1;PMS_P2;Temp;Humidity;BMP_temperature;BMP_pressure;BME280_temperature;BME280_humidity;BME280_pressure;Samples;Min_cycle;Max_cycle;Signal;HPM_P1;HPM_P2
2022/10/10 00:00:48;;;;;;;4.90;4.40;;;;;;;20.74;45.87;101642.88;1656177;86;21959;-79
2022/10/10 00:03:15;;;;;;;5.53;4.15;;;;;;;20.74;45.88;101644.27;1656150;86;21057;-79
2022/10/10 00:05:41;;;;;;;5.65;4.40;;;;;;;20.74;45.87;101648.41;1642880;85;21173;-79
2022/10/10 00:08:08;;;;;;;5.42;4.35;;;;;;;20.74;45.84;101651.18;1656020;85;21587;-79
2022/10/10 00:10:34;;;;;;;4.75;3.95;;;;;;;20.74;45.82;101651.18;1655937;86;21540;-79
2022/10/10 00:13:00;;;;;;;5.67;4.37;;;;;;;20.75;45.81;101648.66;1656331;85;21726;-79
2022/10/10 00:15:27;;;;;;;4.25;3.70;;;;;;;20.74;45.78;101652.56;1642694;86;21105;-79
2022/10/10 00:17:53;;;;;;;5.60;4.22;;;;;;;20.75;45.77;101653.39;1656042;85;22184;-80
2022/10/10 00:20:19;;;;;;;5.40;3.83;;;;;;;20.74;45.77;101653.95;1656065;85;21477;-79
2022/10/10 00:22:46;;;;;;;5.08;4.20;;;;;;;20.74;45.76;101658.09;1659594;85;21031;-79
2022/10/10 00:25:13;;;;;;;5.70;4.50;;;;;;;20.74;45.73;101656.71;1692935;83;21602;-80
2022/10/10 00:27:39;;;;;;;5.30;3.92;;;;;;;20.74;45.74;101654.50;1695243;84;21042;-79
2022/10/10 00:30:10;;;;;;;5.90;4.15;;;;;;;20.74;45.73;101656.71;1664956;85;21065;-79
2022/10/10 00:32:36;;;;;;;4.70;4.22;;;;;;;20.74;45.73;101658.09;1664984;85;21112;-79
2022/10/10 00:35:04;;;;;;;5.10;3.83;;;;;;;20.73;45.71;101661.97;1665128;85;21033;-79
2022/10/10 00:37:30;;;;;;;4.62;3.80;;;;;;;20.74;45.69;101669.70;1664889;85;21730;-79
2022/10/10 00:39:56;;;;;;;5.15;3.70;;;;;;;20.74;45.67;101660.03;1664527;86;21069;-79
2022/10/10 00:42:22;;;;;;;5.30;3.90;;;;;;;20.72;45.64;101658.94;1664643;85;21108;-79
2022/10/10 00:45:20;;;;;;;4.47;4.00;;;;;;;20.72;45.61;101664.47;1664827;85;21060;-79
2022/10/10 00:47:59;;;;;;;4.55;3.77;;;;;;;20.74;45.61;101669.70;1664801;85;21037;-80
2022/10/10 00:50:25;;;;;;;4.42;3.72;;;;;;;20.73;45.57;101675.80;1642547;85;21158;-79
2022/10/10 00:52:52;;;;;;;4.80;3.60;;;;;;;20.73;45.55;101670.82;1645252;86;21660;-80
2022/10/10 00:55:18;;;;;;;4.10;3.50;;;;;;;20.73;45.55;101680.50;1664965;84;21080;-79
2022/10/10 00:57:45;;;;;;;5.92;3.70;;;;;;;20.72;45.56;101678.84;1667355;83;22181;-79
2022/10/10 01:00:11;;;;;;;5.95;3.83;;;;;;;20.72;45.56;101684.37;1715000;83;21832;-79
2022/10/10 01:02:38;;;;;;;4.58;3.75;;;;;;;20.72;45.53;101686.59;1715226;83;21118;-79
2022/10/10 01:05:04;;;;;;;5.35;3.80;;;;;;;20.72;45.53;101683.83;1701679;83;21033;-79
2022/10/10 01:07:31;;;;;;;4.65;3.33;;;;;;;20.72;45.48;101690.73;1675365;84;20973;-79
2022/10/10 01:10:01;;;;;;;5.00;3.60;;;;;;;20.72;45.46;101686.59;1652969;85;21056;-79
2022/10/10 01:13:14;;;;;;;4.50;3.80;;;;;;;20.71;45.44;101683.55;1675550;84;21007;-79
2022/10/10 01:16:11;;;;;;;4.47;3.55;;;;;;;20.72;45.46;101690.73;1675349;84;21554;-80
2022/10/10 01:19:12;;;;;;;5.50;3.80;;;;;;;20.71;45.45;101682.17;1675539;84;21111;-80
2022/10/10 01:22:30;;;;;;;4.47;3.45;;;;;;;20.70;45.41;101679.72;1675371;84;21052;-80
2022/10/10 01:25:07;;;;;;;3.95;3.25;;;;;;;20.69;45.37;101683.05;1680082;84;21567;-80
2022/10/10 01:27:43;;;;;;;5.47;3.98;;;;;;;20.69;45.36;101680.84;1682663;84;21075;-81
2022/10/10 01:30:11;;;;;;;5.00;3.75;;;;;;;20.69;45.33;101683.60;1683263;83;21133;-80
2022/10/10 01:32:48;;;;;;;5.85;3.92;;;;;;;20.68;45.34;101687.48;1683432;84;21545;-80
2022/10/10 01:35:31;;;;;;;5.95;3.37;;;;;;;20.67;45.36;101683.88;1682925;84;21092;-80
2022/10/10 01:38:26;;;;;;;4.47;3.60;;;;;;;20.67;45.34;101691.35;1682766;83;21064;-80
2022/10/10 01:41:18;;;;;;;4.58;3.33;;;;;;;20.68;45.34;101692.45;1682893;84;21071;-80
2022/10/10 01:43:45;;;;;;;4.65;3.45;;;;;;;20.68;45.30;101699.36;1682822;85;21291;-80
2022/10/10 01:46:18;;;;;;;3.58;3.25;;;;;;;20.68;45.33;101697.16;1682890;84;21028;-80
2022/10/10 01:48:49;;;;;;;5.28;3.58;;;;;;;20.67;45.32;101706.56;1682990;84;21052;-80
2022/10/10 01:51:23;;;;;;;4.20;3.25;;;;;;;20.68;45.32;101703.52;1683189;84;21092;-80
2022/10/10 01:54:13;;;;;;;5.00;3.47;;;;;;;20.68;45.32;101706.28;1682899;84;21119;-80
2022/10/10 01:57:06;;;;;;;4.45;3.47;;;;;;;20.68;45.31;101715.95;1682841;83;21076;-80
2022/10/10 02:00:02;;;;;;;4.08;3.40;;;;;;;20.68;45.32;101716.52;1676049;84;21076;-80
2022/10/10 02:02:49;;;;;;;4.50;3.20;;;;;;;20.67;45.30;101714.86;1682889;84;21064;-80
2022/10/10 02:05:39;;;;;;;5.12;3.37;;;;;;;20.67;45.29;101723.98;1683063;84;21539;-80
2022/10/10 02:08:16;;;;;;;4.25;3.00;;;;;;;20.67;45.30;101729.52;1683106;84;21099;-80
2022/10/10 02:10:50;;;;;;;3.90;3.08;;;;;;;20.67;45.27;101730.06;1683553;84;21606;-80
2022/10/10 02:13:16;;;;;;;4.05;3.35;;;;;;;20.67;45.25;101725.92;1695158;84;22318;-80
2022/10/10 02:15:50;;;;;;;5.83;3.17;;;;;;;20.68;45.23;101722.05;1679127;84;21055;-80
2022/10/10 02:18:19;;;;;;;4.75;3.08;;;;;;;20.67;45.23;101728.68;1686729;83;21733;-80
2022/10/10 02:20:45;;;;;;;4.08;3.00;;;;;;;20.66;45.25;101729.83;1682557;84;21075;-80
2022/10/10 02:23:14;;;;;;;4.40;3.35;;;;;;;20.67;45.24;101730.89;1682784;84;22209;-80
2022/10/10 02:25:40;;;;;;;4.90;3.50;;;;;;;20.66;45.21;101729.83;1695730;82;21080;-80
2022/10/10 02:28:21;;;;;;;3.95;3.10;;;;;;;20.68;45.21;101736.70;1679877;83;21115;-80
2022/10/10 02:30:47;;;;;;;5.15;3.35;;;;;;;20.67;45.20;101736.42;1700113;83;21774;-81
2022/10/10 02:33:25;;;;;;;4.87;3.67;;;;;;;20.67;45.18;101732.27;1679862;83;21112;-80
2022/10/10 02:35:52;;;;;;;4.15;3.50;;;;;;;20.68;45.18;101744.16;1699157;82;21917;-80
2022/10/10 02:38:18;;;;;;;3.25;2.75;;;;;;;20.67;45.17;101741.95;1699741;84;21072;-80
2022/10/10 02:40:45;;;;;;;4.05;2.83;;;;;;;20.68;45.16;101753.84;1700070;82;21547;-80
2022/10/10 02:43:11;;;;;;;4.47;3.20;;;;;;;20.69;45.15;101749.97;1679840;84;21136;-81
2022/10/10 02:45:37;;;;;;;3.42;2.87;;;;;;;20.68;45.12;101757.98;1679886;84;21587;-80
2022/10/10 02:48:04;;;;;;;5.17;3.40;;;;;;;20.68;45.12;101757.44;1683114;84;21181;-81
2022/10/10 02:50:30;;;;;;;3.75;3.20;;;;;;;20.68;45.10;101760.75;1673977;84;21106;-80
2022/10/10 02:52:57;;;;;;;3.22;2.83;;;;;;;20.68;45.11;101757.44;1678886;84;21615;-80
2022/10/10 02:55:23;;;;;;;4.30;3.25;;;;;;;20.69;45.10;101756.88;1699953;82;21073;-80
2022/10/10 02:57:50;;;;;;;4.65;3.45;;;;;;;20.68;45.10;101757.44;1700322;83;21084;-80
2022/10/10 03:00:16;;;;;;;4.22;3.27;;;;;;;20.69;45.10;101761.85;1700313;83;21327;-80
2022/10/10 03:02:42;;;;;;;3.92;3.20;;;;;;;20.70;45.11;101754.38;1700430;84;21053;-80
2022/10/10 03:05:09;;;;;;;4.00;3.10;;;;;;;20.68;45.08;101754.67;1680416;83;21092;-80
2022/10/10 03:07:35;;;;;;;3.80;2.85;;;;;;;20.69;45.05;101756.88;1700182;82;21096;-80
2022/10/10 03:10:02;;;;;;;4.50;3.40;;;;;;;20.68;45.04;101757.44;1700237;84;21100;-80
2022/10/10 03:12:28;;;;;;;5.33;2.85;;;;;;;20.69;45.04;101766.56;1700280;84;21074;-80
2022/10/10 03:14:54;;;;;;;5.50;3.27;;;;;;;20.69;45.04;101765.17;1699887;83;21073;-80
2022/10/10 03:17:26;;;;;;;4.83;3.10;;;;;;;20.69;45.05;101765.17;1700305;83;21056;-81
2022/10/10 03:19:53;;;;;;;5.78;3.42;;;;;;;20.69;45.02;101772.09;1700523;82;21140;-80
2022/10/10 03:22:19;;;;;;;3.80;3.00;;;;;;;20.68;45.04;101776.79;1700169;84;21589;-80
2022/10/10 03:24:45;;;;;;;3.75;3.05;;;;;;;20.68;45.01;101776.79;1702759;83;21516;-80
2022/10/10 03:27:11;;;;;;;3.52;3.00;;;;;;;20.69;45.01;101783.97;1709754;83;21535;-80
2022/10/10 03:29:38;;;;;;;5.67;3.22;;;;;;;20.68;44.99;101783.70;1703480;83;21006;-80
2022/10/10 03:32:04;;;;;;;4.47;3.02;;;;;;;20.69;44.98;101783.97;1679347;84;21021;-80
2022/10/10 03:34:30;;;;;;;4.90;3.17;;;;;;;20.68;44.96;101784.26;1701824;84;21041;-80
2022/10/10 03:36:57;;;;;;;3.35;2.92;;;;;;;20.68;44.97;101783.70;1701553;84;21104;-80
2022/10/10 03:39:23;;;;;;;4.25;3.05;;;;;;;20.68;44.97;101789.23;1701523;83;21085;-80
2022/10/10 03:41:49;;;;;;;4.62;3.05;;;;;;;20.69;44.96;101787.30;1701317;84;21116;-80
2022/10/10 03:44:16;;;;;;;4.20;3.02;;;;;;;20.68;44.95;101791.17;1701346;84;21068;-80
2022/10/10 03:46:42;;;;;;;3.40;3.10;;;;;;;20.68;44.95;101787.02;1701850;83;21089;-80
2022/10/10 03:49:08;;;;;;;3.92;2.72;;;;;;;20.69;44.94;101790.89;1701894;83;21216;-80
2022/10/10 03:51:34;;;;;;;4.10;2.85;;;;;;;20.68;44.91;101786.47;1701449;84;21038;-81
2022/10/10 03:54:01;;;;;;;3.70;3.08;;;;;;;20.68;44.92;101796.70;1701691;84;21089;-80
2022/10/10 03:56:27;;;;;;;4.15;3.15;;;;;;;20.68;44.97;101796.14;1701487;82;21272;-80
2022/10/10 03:58:53;;;;;;;3.40;2.80;;;;;;;20.67;44.92;101793.11;1701669;83;21034;-81
2022/10/10 04:01:19;;;;;;;4.12;2.77;;;;;;;20.65;44.85;101795.36;1734703;82;21881;-80
2022/10/10 04:03:46;;;;;;;3.80;2.55;;;;;;;20.64;44.67;101803.94;1744949;82;21017;-80
2022/10/10 04:06:12;;;;;;;3.40;2.47;;;;;;;20.61;44.50;101810.89;1708274;82;21634;-80
2022/10/10 04:08:38;;;;;;;3.00;2.47;;;;;;;20.59;44.35;101806.20;1679905;84;21108;-79
2022/10/10 04:11:04;;;;;;;3.65;2.40;;;;;;;20.57;44.22;101814.53;1700401;84;21144;-79
2022/10/10 04:13:31;;;;;;;3.80;2.70;;;;;;;20.54;44.15;101811.78;1700094;84;21103;-79
2022/10/10 04:15:57;;;;;;;5.40;2.37;;;;;;;20.53;44.16;101803.80;1700416;84;21686;-79
2022/10/10 04:18:23;;;;;;;6.33;2.58;;;;;;;20.49;43.96;101807.71;1708827;82;21053;-79
2022/10/10 04:20:50;;;;;;;5.45;2.50;;;;;;;20.45;43.86;101814.94;1724170;82;21034;-79
2022/10/10 04:23:16;;;;;;;6.05;2.30;;;;;;;20.42;43.83;101815.50;1724351;82;21085;-79
2022/10/10 04:25:43;;;;;;;7.05;2.30;;;;;;;20.42;43.65;101819.66;1724372;82;21691;-79
2022/10/10 04:28:11;;;;;;;5.70;2.60;;;;;;;20.41;43.51;101817.44;1721902;82;22112;-78
2022/10/10 04:30:38;;;;;;;3.05;2.00;;;;;;;20.41;43.44;101818.03;1689444;83;21319;-78
2022/10/10 04:33:04;;;;;;;5.53;2.50;;;;;;;20.42;43.48;101820.48;1707373;82;21093;-79
2022/10/10 04:35:31;;;;;;;5.85;2.25;;;;;;;20.44;43.33;101832.64;1708631;82;21167;-80
2022/10/10 04:37:57;;;;;;;4.30;2.30;;;;;;;20.42;43.24;101830.16;1666180;84;21108;-80
2022/10/10 04:40:23;;;;;;;7.20;2.30;;;;;;;20.43;43.33;101832.36;1653698;85;21045;-84
2022/10/10 04:42:50;;;;;;;2.87;2.00;;;;;;;20.40;43.06;101832.41;1722389;82;22196;-79
2022/10/10 04:45:17;;;;;;;10.23;2.27;;;;;;;20.39;43.03;101839.59;1736201;82;21080;-83
2022/10/10 04:47:45;;;;;;;5.10;2.62;;;;;;;20.36;42.96;101841.02;1721907;81;21174;-80
2022/10/10 04:50:11;;;;;;;9.98;2.50;;;;;;;20.36;43.08;101843.78;1690845;81;21274;-78
2022/10/10 04:52:39;;;;;;;7.42;2.42;;;;;;;20.37;43.09;101846.78;1715148;81;21506;-89
2022/10/10 04:55:06;;;;;;;6.17;2.45;;;;;;;20.39;42.97;101847.88;1723441;81;20965;-78
2022/10/10 04:57:32;;;;;;;9.43;2.77;;;;;;;20.37;42.92;101855.08;1685068;82;21084;-80
2022/10/10 04:59:59;;;;;;;7.92;2.40;;;;;;;20.35;42.78;101855.11;1708459;82;21069;-84
2022/10/10 05:02:25;;;;;;;14.50;2.72;;;;;;;20.31;42.64;101854.88;1712542;82;21138;-80
2022/10/10 05:04:52;;;;;;;12.65;2.30;;;;;;;20.29;42.70;101856.23;1723827;82;21044;-82
2022/10/10 05:07:18;;;;;;;9.83;2.60;;;;;;;20.30;42.75;101857.91;1712119;82;21501;-87
2022/10/10 05:09:45;;;;;;;12.88;2.95;;;;;;;20.29;42.64;101855.70;1702635;81;21071;-84
2022/10/10 05:12:11;;;;;;;7.42;2.15;;;;;;;20.26;42.52;101862.34;1716898;82;21121;-87
2022/10/10 05:14:37;;;;;;;8.03;2.35;;;;;;;20.21;42.33;101867.91;1708818;82;21562;-84
2022/10/10 05:17:04;;;;;;;6.92;2.27;;;;;;;20.16;42.17;101862.42;1713725;81;21124;-84
2022/10/10 05:19:30;;;;;;;6.62;2.33;;;;;;;20.09;42.14;101864.14;1702763;82;21207;-86
2022/10/10 05:21:56;;;;;;;6.58;2.20;;;;;;;20.08;42.11;101868.02;1706949;82;21039;-87
2022/10/10 05:24:23;;;;;;;7.62;2.10;;;;;;;20.05;42.00;101872.19;1701240;82;21068;-85
2022/10/10 05:26:49;;;;;;;6.15;2.60;;;;;;;20.06;42.18;101875.78;1699983;82;21753;-85
2022/10/10 05:29:16;;;;;;;7.12;2.20;;;;;;;20.07;42.18;101882.38;1706245;82;21079;-86
2022/10/10 05:31:42;;;;;;;9.03;2.45;;;;;;;20.11;42.10;101885.41;1707788;82;21005;-87
2022/10/10 05:34:12;;;;;;;9.68;3.33;;;;;;;20.10;42.03;101892.05;1667780;83;21141;-86
2022/10/10 05:36:40;;;;;;;14.83;2.85;;;;;;;20.09;42.09;101893.15;1697922;82;21767;-83
2022/10/10 05:39:07;;;;;;;8.30;2.87;;;;;;;20.10;42.08;101896.74;1693766;82;21297;-86
2022/10/10 05:41:33;;;;;;;9.43;2.67;;;;;;;20.08;41.98;101899.23;1708176;82;21693;-87
2022/10/10 05:43:59;;;;;;;10.90;2.95;;;;;;;20.08;42.07;101900.61;1701743;82;21112;-84
2022/10/10 05:46:32;;;;;;;11.25;2.55;;;;;;;20.09;42.06;101893.15;1703659;82;21065;-81
2022/10/10 05:48:58;;;;;;;14.40;3.62;;;;;;;20.07;41.97;101898.95;1674239;83;21141;-81
2022/10/10 05:51:25;;;;;;;18.07;3.45;;;;;;;20.06;42.15;101907.55;1697054;82;22176;-82
2022/10/10 05:53:51;;;;;;;14.73;3.10;;;;;;;20.04;42.48;101909.20;1681762;82;21616;-75
2022/10/10 05:56:19;;;;;;;19.02;4.25;;;;;;;20.05;42.76;101915.01;1698377;81;21080;-82
2022/10/10 05:58:49;;;;;;;13.05;3.52;;;;;;;20.08;42.90;101917.73;1698271;82;21598;-79
2022/10/10 06:01:15;;;;;;;17.95;4.17;;;;;;;20.10;42.93;101914.15;1695222;82;21622;-83
2022/10/10 06:03:41;;;;;;;14.20;3.98;;;;;;;20.13;43.18;101921.86;1682555;82;22003;-79
2022/10/10 06:06:08;;;;;;;11.57;2.98;;;;;;;20.15;43.17;101921.02;1696751;82;21124;-80
2022/10/10 06:08:34;;;;;;;10.55;3.22;;;;;;;20.16;43.07;101924.58;1693817;82;21155;-79
2022/10/10 06:11:10;;;;;;;17.30;3.50;;;;;;;20.15;43.17;101928.48;1704577;81;21486;-78
2022/10/10 06:13:34;;;;;;;13.20;2.75;;;;;;;20.15;43.08;101936.22;1708678;81;22032;-83
2022/10/10 06:16:00;;;;;;;21.57;4.83;;;;;;;20.16;43.11;101932.88;1707787;81;21696;-79
2022/10/10 06:18:27;;;;;;;15.98;3.35;;;;;;;20.15;43.22;101927.93;1691597;82;21135;-80
2022/10/10 06:20:53;;;;;;;17.02;3.58;;;;;;;20.16;43.20;101941.99;1667659;84;21165;-79
2022/10/10 06:23:20;;;;;;;20.27;3.12;;;;;;;20.18;43.53;101938.95;1692630;81;21097;-79
2022/10/10 06:25:46;;;;;;;12.95;3.27;;;;;;;20.20;43.71;101945.83;1687586;82;21012;-79
2022/10/10 06:28:13;;;;;;;11.03;3.10;;;;;;;20.25;43.83;101938.06;1676426;83;21156;-81
2022/10/10 06:30:43;;;;;;;15.15;3.62;;;;;;;20.26;43.70;101943.31;1677902;83;21109;-80
2022/10/10 06:33:10;;;;;;;15.03;3.02;;;;;;;20.25;43.75;101944.97;1670211;83;21137;-81
2022/10/10 06:35:42;;;;;;;13.70;3.00;;;;;;;20.24;43.77;101952.43;1680921;83;21102;-85
2022/10/10 06:38:08;;;;;;;18.32;2.85;;;;;;;20.21;43.64;101953.56;1672459;83;21080;-81
2022/10/10 06:40:35;;;;;;;10.03;3.37;;;;;;;20.19;43.72;101954.42;1668393;83;21534;-79
2022/10/10 06:43:03;;;;;;;10.50;2.67;;;;;;;20.20;43.86;101948.59;1669169;83;21131;-81
2022/10/10 06:45:29;;;;;;;8.55;2.95;;;;;;;20.20;43.70;101953.32;1682442;83;21527;-84
2022/10/10 06:47:56;;;;;;;13.15;2.42;;;;;;;20.18;43.64;101952.22;1671746;83;21598;-82
2022/10/10 06:50:22;;;;;;;22.80;2.90;;;;;;;20.20;43.83;101956.09;1660765;83;21607;-81
2022/10/10 06:52:49;;;;;;;14.78;2.92;;;;;;;20.22;43.98;101964.89;1674808;84;22340;-84
2022/10/10 06:55:15;;;;;;;16.10;2.65;;;;;;;20.23;44.07;101966.55;1677424;83;21068;-82
2022/10/10 06:57:41;;;;;;;11.83;2.52;;;;;;;20.17;43.75;101964.38;1679648;83;21055;-84
2022/10/10 07:00:11;;;;;;;17.73;3.00;;;;;;;20.07;43.57;101969.98;1667272;83;21686;-77
2022/10/10 07:02:40;;;;;;;16.40;2.83;;;;;;;20.04;44.00;101971.91;1671605;83;21637;-77
2022/10/10 07:05:10;;;;;;;10.60;3.02;;;;;;;20.06;44.03;101973.85;1676615;83;21104;-79
2022/10/10 07:07:38;;;;;;;10.65;2.45;;;;;;;20.06;43.82;101976.61;1675700;83;21081;-83
2022/10/10 07:10:14;;;;;;;16.70;2.52;;;;;;;20.04;43.86;101974.12;1680449;83;21095;-77
2022/10/10 07:13:01;;;;;;;17.02;2.80;;;;;;;20.06;43.72;101973.85;1651051;83;21056;-87
2022/10/10 07:15:32;;;;;;;10.82;2.20;;;;;;;20.05;43.92;101971.64;1615347;87;21610;-76
2022/10/10 07:18:00;;;;;;;8.80;2.50;;;;;;;20.05;43.83;101979.92;1594882;87;20991;-77
2022/10/10 07:20:27;;;;;;;11.95;2.45;;;;;;;20.04;43.62;101971.36;1607882;86;21087;-80
2022/10/10 07:22:56;;;;;;;9.60;2.35;;;;;;;20.04;43.52;101975.51;1629430;86;22043;-79
2022/10/10 07:25:23;;;;;;;7.28;2.08;;;;;;;20.03;43.38;101971.64;1671738;83;21103;-78
2022/10/10 07:27:51;;;;;;;5.87;1.90;;;;;;;20.02;43.15;101969.45;1702865;82;20945;-78
2022/10/10 07:30:19;;;;;;;3.15;1.60;;;;;;;20.02;43.12;101970.84;1701848;81;21024;-81
2022/10/10 07:32:49;;;;;;;6.78;2.25;;;;;;;20.03;43.04;101968.33;1703957;82;21942;-78
2022/10/10 07:35:16;;;;;;;5.87;2.05;;;;;;;20.05;43.10;101962.52;1707565;82;21190;-79
2022/10/10 07:37:44;;;;;;;6.35;1.67;;;;;;;20.06;43.04;101971.09;1705056;82;21136;-79
2022/10/10 07:40:11;;;;;;;3.47;1.75;;;;;;;20.06;42.89;101971.92;1708313;82;21064;-81
2022/10/10 07:42:37;;;;;;;5.22;1.90;;;;;;;20.06;42.48;101966.95;1696618;83;21597;-84
2022/10/10 07:45:05;;;;;;;7.58;1.90;;;;;;;20.00;42.40;101964.77;1715635;82;21160;-85
2022/10/10 07:47:32;;;;;;;10.82;2.22;;;;;;;20.00;42.43;101975.81;1709669;82;21255;-77
2022/10/10 07:50:05;;;;;;;17.42;2.77;;;;;;;20.02;42.86;101974.16;1683495;82;21924;-77
2022/10/10 07:52:34;;;;;;;32.67;2.60;;;;;;;20.07;43.25;101966.64;1703539;81;21089;-79
2022/10/10 07:55:02;;;;;;;21.93;2.77;;;;;;;20.11;43.48;101964.70;1705228;82;21904;-82
2022/10/10 07:57:33;;;;;;;19.70;2.45;;;;;;;20.15;43.57;101970.76;1703105;80;120948;-86
2022/10/10 08:00:03;;;;;;;36.08;3.20;;;;;;;20.14;43.28;101960.81;1708823;82;21100;-87
2022/10/10 08:02:33;;;;;;;32.95;2.72;;;;;;;20.13;43.42;101963.85;1707568;83;21104;-90
2022/10/10 08:05:11;;;;;;;12.58;3.12;;;;;;;20.14;43.32;101956.66;1681476;83;21080;-90
2022/10/10 08:07:39;;;;;;;13.10;1.60;;;;;;;20.14;43.13;101959.43;1672827;83;21122;-84
2022/10/10 08:10:09;;;;;;;5.90;1.40;;;;;;;20.10;42.67;101957.52;1671900;84;21040;-89
2022/10/10 08:15:10;;;;;;;6.28;1.37;;;;;;;20.10;42.12;101962.50;1847211;75;23353;-86
2022/10/10 08:17:44;;;;;;;16.12;1.72;;;;;;;19.97;41.83;101953.46;1817790;77;21039;-92
2022/10/10 08:20:13;;;;;;;9.43;1.77;;;;;;;19.95;41.83;101960.64;1757767;80;21542;-79
2022/10/10 08:22:49;;;;;;;3.62;1.12;;;;;;;19.95;41.78;101963.41;1741188;80;21698;-87
2022/10/10 08:25:16;;;;;;;2.98;1.30;;;;;;;19.97;41.67;101964.52;1747604;80;21511;-83
2022/10/10 08:27:43;;;;;;;7.25;1.40;;;;;;;19.98;41.56;101968.38;1749494;80;21096;-84
2022/10/10 08:30:10;;;;;;;5.72;1.57;;;;;;;19.98;41.50;101971.14;1803525;77;21122;-84
2022/10/10 08:32:40;;;;;;;7.85;1.40;;;;;;;19.98;41.37;101978.05;1770878;78;21080;-84
2022/10/10 08:35:08;;;;;;;13.28;2.00;;;;;;;19.95;41.21;101977.22;1805173;77;21970;-84
2022/10/10 08:37:35;;;;;;;16.23;2.33;;;;;;;19.94;41.58;101974.76;1801426;77;21660;-86
2022/10/10 08:40:03;;;;;;;11.20;2.10;;;;;;;19.98;42.20;101975.29;1805334;77;21017;-82
2022/10/10 08:42:35;;;;;;;22.40;3.25;;;;;;;20.02;42.63;101979.13;1807387;77;21298;-82
2022/10/10 08:45:09;;;;;;;15.88;1.72;;;;;;;20.07;43.21;101969.98;1811293;77;21490;-75
2022/10/10 08:48:00;;;;;;;13.98;1.75;;;;;;;20.10;42.94;101961.12;1764894;77;21046;-79
2022/10/10 08:50:36;;;;;;;17.52;2.22;;;;;;;20.07;42.69;101965.26;1802773;77;25250;-79
2022/10/10 08:53:14;;;;;;;10.50;2.12;;;;;;;20.07;42.68;101966.64;1784625;78;21478;-80
2022/10/10 08:55:43;;;;;;;11.00;1.80;;;;;;;20.07;42.87;101965.26;1818049;77;20905;-84
2022/10/10 08:58:30;;;;;;;13.53;2.02;;;;;;;20.08;42.77;101957.80;1801849;78;22204;-84
2022/10/10 09:01:05;;;;;;;11.33;1.60;;;;;;;20.08;42.69;101953.66;1813014;77;21380;-85
2022/10/10 09:03:45;;;;;;;11.12;1.42;;;;;;;20.07;42.47;101962.50;1779636;78;20953;-84
2022/10/10 09:06:17;;;;;;;9.95;2.15;;;;;;;20.09;42.50;101953.94;1768545;79;20897;-85
2022/10/10 09:09:04;;;;;;;6.47;2.20;;;;;;;20.07;42.15;101958.94;1767753;79;20945;-85
2022/10/10 09:12:04;;;;;;;10.23;1.82;;;;;;;20.06;42.27;101954.52;1767878;79;21770;-84
2022/10/10 09:14:56;;;;;;;4.58;1.20;;;;;;;20.06;42.25;101951.75;1748818;81;22011;-85
2022/10/10 09:17:43;;;;;;;6.80;1.30;;;;;;;20.04;41.78;101965.01;1756607;80;21578;-85
2022/10/10 09:20:18;;;;;;;5.22;1.35;;;;;;;19.96;41.45;101958.71;1775766;79;21056;-85
2022/10/10 09:23:07;;;;;;;7.05;1.67;;;;;;;19.90;41.20;101961.25;1770182;80;21548;-84
2022/10/10 09:25:44;;;;;;;7.62;1.50;;;;;;;19.89;41.38;101954.89;1772544;80;21658;-84
2022/10/10 09:28:15;;;;;;;7.08;1.52;;;;;;;19.90;41.36;101957.91;1768270;79;20932;-84
2022/10/10 09:30:46;;;;;;;4.42;1.50;;;;;;;19.92;41.36;101958.46;1785425;79;20901;-84
2022/10/10 09:33:24;;;;;;;4.62;1.50;;;;;;;19.93;41.09;101963.43;1785187;79;21474;-84
2022/10/10 09:35:51;;;;;;;2.37;1.35;;;;;;;19.92;40.85;101961.77;1808245;78;21670;-84
2022/10/10 09:38:43;;;;;;;4.67;1.42;;;;;;;19.91;40.75;101967.84;1802596;78;21607;-83
2022/10/10 09:41:21;;;;;;;4.85;1.20;;;;;;;19.93;40.87;101970.34;1787452;78;21497;-84
2022/10/10 09:44:01;;;;;;;8.03;1.67;;;;;;;19.92;40.80;101961.77;1814489;78;21502;-84
2022/10/10 09:46:25;;;;;;;3.02;1.25;;;;;;;19.86;40.56;101958.20;1808119;78;21077;-84
2022/10/10 09:48:52;;;;;;;4.67;1.57;;;;;;;19.81;40.41;101949.97;1808738;78;21366;-83
2022/10/10 09:51:19;;;;;;;5.80;1.62;;;;;;;19.78;40.42;101950.52;1799226;78;21631;-84
2022/10/10 09:53:47;;;;;;;7.92;1.62;;;;;;;19.78;40.47;101957.42;1776504;78;21616;-84
2022/10/10 09:56:22;;;;;;;6.95;1.72;;;;;;;19.77;40.49;101943.92;1809078;78;21024;-84
2022/10/10 09:58:52;;;;;;;8.75;1.90;;;;;;;19.79;40.60;101950.80;1794322;78;21050;-84
2022/10/10 10:01:25;;;;;;;12.78;1.75;;;;;;;19.82;40.73;101946.08;1753550;81;21101;-84
2022/10/10 10:04:19;;;;;;;6.95;1.32;;;;;;;19.85;40.73;101940.56;1795896;78;21185;-84
2022/10/10 10:06:49;;;;;;;6.95;1.87;;;;;;;19.86;40.69;101940.25;1798505;78;21205;-86
2022/10/10 10:09:19;;;;;;;9.55;2.17;;;;;;;19.87;40.76;101933.62;1754283;79;21116;-83
2022/10/10 10:11:47;;;;;;;8.53;1.77;;;;;;;19.90;40.94;101934.43;1780040;78;21091;-81
2022/10/10 10:14:24;;;;;;;7.92;1.60;;;;;;;19.95;41.06;101930.26;1729928;80;21554;-83
2022/10/10 10:16:51;;;;;;;6.20;1.45;;;;;;;19.97;40.84;101922.52;1789827;78;21344;-85
2022/10/10 10:19:31;;;;;;;8.53;1.67;;;;;;;19.95;40.55;101920.59;1785010;78;20964;-84
2022/10/10 10:21:58;;;;;;;3.40;1.30;;;;;;;19.94;40.73;101913.41;1761931;78;21015;-85
2022/10/10 10:24:34;;;;;;;4.78;1.40;;;;;;;19.93;40.52;101913.16;1791559;78;21589;-83
2022/10/10 10:27:09;;;;;;;6.37;1.22;;;;;;;19.92;40.39;101914.82;1794745;78;21600;-84
2022/10/10 10:29:36;;;;;;;4.75;2.00;;;;;;;19.93;40.28;101913.72;1789717;79;21514;-83
2022/10/10 10:32:11;;;;;;;7.95;1.47;;;;;;;19.92;40.24;101912.88;1790335;78;21122;-84
2022/10/10 10:34:55;;;;;;;3.55;1.37;;;;;;;19.96;40.29;101908.98;1810137;78;21096;-85
2022/10/10 10:37:48;;;;;;;8.90;1.40;;;;;;;19.93;40.02;101904.87;1772042;80;21055;-83
2022/10/10 10:40:55;;;;;;;4.97;1.52;;;;;;;19.92;39.91;101901.01;1788064;78;21099;-83
2022/10/10 10:43:45;;;;;;;5.42;1.37;;;;;;;19.92;39.90;101892.17;1782824;79;21059;-83
2022/10/10 10:46:32;;;;;;;5.83;1.55;;;;;;;19.94;39.90;101889.93;1791139;78;21534;-84
2022/10/10 10:49:05;;;;;;;3.20;1.17;;;;;;;19.96;39.89;101889.10;1795693;78;21102;-83
2022/10/10 10:51:52;;;;;;;16.20;3.27;;;;;;;19.98;40.00;101886.89;1735080;78;21087;-83
2022/10/10 10:55:09;;;;;;;8.10;1.90;;;;;;;20.01;40.03;101881.34;1773944;79;21055;-84
2022/10/10 10:58:03;;;;;;;14.78;2.05;;;;;;;20.04;40.22;101879.38;1789399;78;21241;-84
2022/10/10 11:00:32;;;;;;;15.15;2.27;;;;;;;20.12;40.77;101880.13;1795676;78;21042;-85
2022/10/10 11:03:16;;;;;;;17.57;2.12;;;;;;;20.16;41.05;101874.85;1795394;78;21026;-81
2022/10/10 11:05:46;;;;;;;15.75;2.35;;;;;;;20.19;41.45;101868.22;1775649;78;21719;-86
2022/10/10 11:08:36;;;;;;;6.72;1.87;;;;;;;20.23;41.53;101863.76;1803480;78;21081;-84
2022/10/10 11:11:43;;;;;;;14.45;1.90;;;;;;;20.24;41.24;101862.62;1818832;78;21107;-82
2022/10/10 11:14:21;;;;;;;4.83;1.55;;;;;;;20.21;41.03;101853.53;1781055;78;21088;-83
2022/10/10 11:16:55;;;;;;;17.48;2.85;;;;;;;20.19;40.88;101854.40;1790458;78;21059;-84
2022/10/10 11:19:26;;;;;;;6.30;1.70;;;;;;;20.18;40.88;101853.30;1790790;78;21495;-85
2022/10/10 11:22:16;;;;;;;12.82;1.80;;;;;;;20.17;40.82;101849.70;1805123;78;21057;-84
2022/10/10 11:25:09;;;;;;;7.65;1.52;;;;;;;20.16;40.73;101849.43;1810454;78;21475;-82
2022/10/10 11:27:49;;;;;;;8.18;1.98;;;;;;;20.15;40.72;101845.59;1799385;78;21076;-85
2022/10/10 11:30:23;;;;;;;6.95;1.82;;;;;;;20.16;40.64;101844.45;1794750;78;21559;-84
2022/10/10 11:33:01;;;;;;;5.50;2.17;;;;;;;20.15;40.54;101842.28;1780619;77;21063;-84
2022/10/10 11:35:42;;;;;;;13.98;2.20;;;;;;;20.14;40.50;101851.67;1799405;78;21118;-85
2022/10/10 11:38:23;;;;;;;3.77;1.57;;;;;;;20.15;40.48;101839.52;1801528;78;21200;-84
2022/10/10 11:41:14;;;;;;;7.42;1.60;;;;;;;20.15;40.42;101838.69;1810661;78;21505;-83
2022/10/10 11:43:56;;;;;;;4.72;1.60;;;;;;;20.16;40.41;101833.41;1800084;78;21044;-85
2022/10/10 11:46:31;;;;;;;6.15;1.75;;;;;;;20.19;40.45;101830.09;1806572;78;21084;-84